Time;durP1;ratioP1;P1;durP2;ratioP2;P2;SDS_P1;SDS_P2;PMS_P1;PMS_P2;Temp;Humidity;BMP_temperature;BMP_pressure;BME280_temperature;BME280_humidity;BME280_pressure;Samples;Min_cycle;Max_cycle;Signal;HPM_P1;HPM_P2
2022/03/31 00:00:47;;;;;;;3.60;1.85;;;-1.80;99.90;;;;;;5000975;28;20613;-67
2022/03/31 00:03:17;;;;;;;4.32;1.75;;;-1.80;99.90;;;;;;5000174;28;20042;-64
2022/03/31 00:05:45;;;;;;;2.83;1.88;;;-1.90;99.90;;;;;;5002923;28;20129;-66
2022/03/31 00:08:14;;;;;;;3.45;1.55;;;-1.90;99.90;;;;;;4998905;28;20100;-66
2022/03/31 00:10:50;;;;;;;1.65;1.48;;;-2.00;99.90;;;;;;4995994;28;20057;-65
2022/03/31 00:13:19;;;;;;;1.92;1.70;;;-2.00;99.90;;;;;;5005457;28;20045;-70
2022/03/31 00:15:46;;;;;;;4.82;2.00;;;-2.10;99.90;;;;;;4999142;28;20149;-67
2022/03/31 00:18:14;;;;;;;2.75;2.00;;;-2.20;99.90;;;;;;4999367;28;20059;-70
2022/03/31 00:20:41;;;;;;;3.10;2.10;;;-2.30;99.90;;;;;;5004724;28;20073;-70
2022/03/31 00:23:08;;;;;;;3.53;1.63;;;-2.30;99.90;;;;;;4976890;28;20050;-64
2022/03/31 00:25:35;;;;;;;4.05;2.05;;;-2.40;99.90;;;;;;5003240;28;20236;-66
2022/03/31 00:28:03;;;;;;;3.28;1.38;;;-2.40;99.90;;;;;;5004866;28;20046;-68
2022/03/31 00:30:32;;;;;;;1.88;1.77;;;-2.50;99.90;;;;;;4995918;28;20152;-66
2022/03/31 00:32:59;;;;;;;3.55;2.25;;;-2.50;99.90;;;;;;5009501;28;20159;-65
2022/03/31 00:35:27;;;;;;;2.88;1.85;;;-2.50;99.90;;;;;;5018197;28;20053;-71
2022/03/31 00:37:55;;;;;;;1.88;1.45;;;-2.60;99.90;;;;;;5008431;28;20576;-68
2022/03/31 00:40:22;;;;;;;3.42;2.28;;;-2.70;99.90;;;;;;5002007;28;20189;-67
2022/03/31 00:42:52;;;;;;;1.70;1.55;;;-2.70;99.90;;;;;;5003134;28;20049;-69
2022/03/31 00:45:25;;;;;;;3.10;2.05;;;-2.80;99.90;;;;;;5002654;28;20144;-64
2022/03/31 00:47:54;;;;;;;2.33;1.92;;;-2.90;99.90;;;;;;4996981;28;20128;-64
2022/03/31 00:50:22;;;;;;;2.58;1.92;;;-3.00;99.90;;;;;;5008063;28;20057;-64
2022/03/31 00:52:49;;;;;;;2.65;1.50;;;-3.00;99.90;;;;;;5005674;28;20054;-63
2022/03/31 00:55:31;;;;;;;2.50;2.15;;;-3.00;99.90;;;;;;5004118;28;20396;-64
2022/03/31 00:57:59;;;;;;;3.08;1.75;;;-3.00;99.90;;;;;;5004230;28;20042;-66
2022/03/31 01:00:27;;;;;;;4.07;2.13;;;-3.00;99.90;;;;;;5002049;28;20089;-65
2022/03/31 01:02:55;;;;;;;5.82;1.77;;;-3.00;99.90;;;;;;5001397;28;20144;-69
2022/03/31 01:05:22;;;;;;;2.88;2.17;;;-3.00;99.90;;;;;;4991291;28;20042;-65
2022/03/31 01:07:49;;;;;;;4.00;2.42;;;-3.10;99.90;;;;;;5014689;28;20129;-64
2022/03/31 01:10:16;;;;;;;3.35;2.28;;;-3.10;99.90;;;;;;5011967;28;20131;-65
2022/03/31 01:12:43;;;;;;;3.95;2.35;;;-3.10;99.90;;;;;;5003492;28;20204;-67
2022/03/31 01:15:15;;;;;;;3.65;2.33;;;-3.20;99.90;;;;;;4998551;28;20136;-71
2022/03/31 01:17:45;;;;;;;4.20;2.73;;;-3.20;99.90;;;;;;5002037;28;20570;-68
2022/03/31 01:20:20;;;;;;;1.70;1.60;;;-3.30;99.90;;;;;;4998884;28;20041;-67
2022/03/31 01:22:48;;;;;;;4.47;3.03;;;-3.30;99.90;;;;;;5002366;28;20123;-69
2022/03/31 01:25:15;;;;;;;3.10;2.22;;;-3.30;99.90;;;;;;5010125;28;20056;-63
2022/03/31 01:27:45;;;;;;;3.33;2.05;;;-3.40;99.90;;;;;;5003655;28;20100;-68
2022/03/31 01:30:15;;;;;;;5.32;1.45;;;-3.50;99.90;;;;;;5001511;28;20145;-71
2022/03/31 01:32:44;;;;;;;1.98;1.80;;;-3.60;99.90;;;;;;5005462;28;20141;-65
2022/03/31 01:35:12;;;;;;;4.53;1.75;;;-3.60;99.90;;;;;;4993268;28;20145;-65
2022/03/31 01:37:39;;;;;;;2.17;1.88;;;-3.70;99.90;;;;;;5003879;28;20057;-64
2022/03/31 01:40:07;;;;;;;4.10;1.57;;;-3.70;99.90;;;;;;5010566;28;20050;-67
2022/03/31 01:42:35;;;;;;;3.47;1.43;;;-3.80;99.90;;;;;;4990775;28;20054;-68
2022/03/31 01:45:05;;;;;;;2.42;1.42;;;-3.80;99.90;;;;;;5003299;28;20049;-68
2022/03/31 01:47:32;;;;;;;3.97;1.65;;;-3.90;99.90;;;;;;4999732;28;20932;-65
2022/03/31 01:50:01;;;;;;;1.42;1.17;;;-4.00;99.90;;;;;;5000769;28;20511;-67
2022/03/31 01:52:29;;;;;;;2.00;1.75;;;-4.00;99.90;;;;;;4994994;28;20061;-65
2022/03/31 01:54:56;;;;;;;1.80;1.17;;;-4.00;99.90;;;;;;5002172;28;20049;-65
2022/03/31 01:57:23;;;;;;;3.78;2.00;;;-4.00;99.90;;;;;;5008158;28;20073;-65
2022/03/31 01:59:50;;;;;;;2.13;1.30;;;-3.90;99.90;;;;;;5014592;28;20115;-64
2022/03/31 02:02:17;;;;;;;3.10;2.77;;;-4.00;99.90;;;;;;5005383;28;20475;-66
2022/03/31 02:04:44;;;;;;;2.10;1.67;;;-4.00;99.90;;;;;;5000660;28;20053;-70
2022/03/31 02:07:11;;;;;;;1.60;1.33;;;-4.00;99.90;;;;;;4997316;28;21150;-66
2022/03/31 02:09:39;;;;;;;3.57;2.27;;;-4.00;99.90;;;;;;5002862;28;20053;-67
2022/03/31 02:12:06;;;;;;;2.30;1.50;;;-4.00;99.90;;;;;;5002212;28;20441;-68
2022/03/31 02:14:37;;;;;;;2.13;1.90;;;-4.00;99.90;;;;;;5004571;28;20493;-64
2022/03/31 02:17:05;;;;;;;;;;;-4.00;99.90;;;;;;5003209;28;20065;-64
2022/03/31 02:19:32;;;;;;;3.67;3.33;;;-4.10;99.90;;;;;;5002843;28;20738;-68
2022/03/31 02:21:59;;;;;;;6.67;3.47;;;-4.10;99.90;;;;;;5000040;28;20133;-64
2022/03/31 02:24:26;;;;;;;4.28;3.03;;;-4.10;99.90;;;;;;4997919;28;20180;-63
2022/03/31 02:26:53;;;;;;;3.45;3.15;;;-4.20;99.90;;;;;;5000154;28;20046;-64
2022/03/31 02:29:19;;;;;;;4.27;2.97;;;-4.20;99.90;;;;;;5003445;28;20054;-66
2022/03/31 02:31:46;;;;;;;4.53;2.75;;;-4.20;99.90;;;;;;5001569;28;20089;-66
2022/03/31 02:34:15;;;;;;;7.63;3.27;;;-4.20;99.90;;;;;;4995030;28;20058;-66
2022/03/31 02:36:43;;;;;;;2.60;2.25;;;-4.30;99.90;;;;;;4999616;28;20120;-66
2022/03/31 02:39:10;;;;;;;3.38;2.97;;;-4.30;99.90;;;;;;5004832;28;20056;-70
2022/03/31 02:41:38;;;;;;;2.40;2.20;;;-4.30;99.90;;;;;;5008664;28;20073;-67
2022/03/31 02:44:06;;;;;;;2.93;1.77;;;-4.30;99.90;;;;;;5002728;28;20050;-64
2022/03/31 02:46:33;;;;;;;3.27;2.07;;;-4.30;99.90;;;;;;5001280;28;20055;-69
2022/03/31 02:49:00;;;;;;;3.80;2.40;;;-4.40;99.90;;;;;;5003183;28;20046;-64
2022/03/31 02:51:27;;;;;;;3.30;2.00;;;-4.40;99.90;;;;;;5003282;28;20053;-64
2022/03/31 02:56:40;;;;;;;3.97;2.37;;;-4.50;99.90;;;;;;4998402;28;20157;-64
2022/03/31 02:59:07;;;;;;;2.17;1.90;;;-4.50;99.90;;;;;;5002439;28;20050;-66
2022/03/31 03:01:35;;;;;;;11.03;2.13;;;-4.60;99.90;;;;;;4997871;28;20144;-69
2022/03/31 03:04:02;;;;;;;3.77;1.70;;;-4.60;99.90;;;;;;5001714;28;20057;-63
2022/03/31 03:06:29;;;;;;;3.10;1.50;;;-4.60;99.90;;;;;;5000416;28;20896;-67
2022/03/31 03:08:56;;;;;;;4.00;1.93;;;-4.70;99.90;;;;;;5001776;28;20124;-66
2022/03/31 03:11:23;;;;;;;2.53;1.90;;;-4.70;99.90;;;;;;4997920;28;20053;-66
2022/03/31 03:13:50;;;;;;;2.40;1.77;;;-4.70;99.90;;;;;;5001250;28;20078;-65
2022/03/31 03:16:17;;;;;;;4.83;2.90;;;-4.70;99.90;;;;;;5001977;28;20073;-64
2022/03/31 03:18:44;;;;;;;3.70;2.30;;;-4.80;99.90;;;;;;5001432;28;20053;-65
2022/03/31 03:21:11;;;;;;;2.67;1.77;;;-4.80;99.90;;;;;;4994565;28;20101;-70
2022/03/31 03:23:40;;;;;;;4.40;2.33;;;-4.80;99.90;;;;;;5001714;28;20487;-67
2022/03/31 03:26:07;;;;;;;2.30;1.77;;;-4.90;99.90;;;;;;4999638;28;20160;-63
2022/03/31 03:28:38;;;;;;;5.07;2.10;;;-4.90;99.90;;;;;;4994118;28;20154;-64
2022/03/31 03:31:06;;;;;;;6.47;2.37;;;-4.90;99.90;;;;;;5000313;28;20133;-69
2022/03/31 03:33:34;;;;;;;4.60;3.60;;;-4.90;99.90;;;;;;4992032;28;20042;-64
2022/03/31 03:36:03;;;;;;;5.20;2.07;;;-4.90;99.90;;;;;;4989789;28;20127;-66
2022/03/31 03:38:31;;;;;;;4.65;2.53;;;-4.90;99.90;;;;;;5000438;28;20078;-65
2022/03/31 03:40:58;;;;;;;5.50;2.00;;;-5.00;99.90;;;;;;5001169;28;20072;-63
2022/03/31 03:43:26;;;;;;;5.57;2.50;;;-5.00;99.90;;;;;;4999181;28;20074;-63
2022/03/31 03:45:53;;;;;;;3.73;2.20;;;-5.00;99.90;;;;;;5006271;28;20116;-63
2022/03/31 03:48:22;;;;;;;5.90;2.70;;;-5.10;99.90;;;;;;5003110;28;20655;-66
2022/03/31 03:50:49;;;;;;;11.03;2.57;;;-5.10;99.90;;;;;;4995790;28;20057;-64
2022/03/31 03:53:16;;;;;;;3.67;2.60;;;-5.20;99.90;;;;;;5005748;28;20148;-65
2022/03/31 03:55:44;;;;;;;6.77;3.87;;;-5.20;99.90;;;;;;5006392;28;20108;-66
2022/03/31 03:58:10;;;;;;;5.13;2.83;;;-5.20;99.90;;;;;;5000524;28;20128;-64
2022/03/31 04:00:38;;;;;;;8.90;4.67;;;-5.20;99.90;;;;;;5006440;28;20061;-67
2022/03/31 04:03:05;;;;;;;15.07;4.47;;;-5.20;99.90;;;;;;5004606;28;20058;-63
2022/03/31 04:05:33;;;;;;;11.43;3.03;;;-5.20;99.90;;;;;;5010191;28;20041;-65
2022/03/31 04:08:00;;;;;;;5.50;3.17;;;-5.30;99.90;;;;;;5004128;28;20049;-67
2022/03/31 04:10:27;;;;;;;9.63;2.67;;;-5.30;99.90;;;;;;5005588;28;20132;-63
2022/03/31 04:12:54;;;;;;;13.60;3.27;;;-5.30;99.90;;;;;;4998252;28;20069;-70
2022/03/31 04:15:21;;;;;;;6.73;3.63;;;-5.30;99.90;;;;;;5002350;28;20052;-64
2022/03/31 04:17:48;;;;;;;11.50;3.23;;;-5.40;99.90;;;;;;5004676;28;20382;-66
2022/03/31 04:20:15;;;;;;;10.57;2.80;;;-5.40;99.90;;;;;;5001264;28;20727;-64
2022/03/31 04:22:43;;;;;;;5.53;3.00;;;-5.40;99.90;;;;;;5005467;28;20042;-64
2022/03/31 04:25:11;;;;;;;11.20;3.03;;;-5.40;99.90;;;;;;5009358;28;20112;-69
2022/03/31 04:27:38;;;;;;;8.47;2.80;;;-5.40;99.90;;;;;;5004590;28;20099;-63
2022/03/31 04:30:08;;;;;;;20.63;3.20;;;-5.40;99.90;;;;;;5002606;28;20059;-63
2022/03/31 04:32:35;;;;;;;18.23;3.95;;;-5.40;99.90;;;;;;5003420;28;20227;-64
2022/03/31 04:35:02;;;;;;;10.40;3.57;;;-5.40;99.90;;;;;;5001742;28;20173;-64
2022/03/31 04:37:29;;;;;;;18.67;4.03;;;-5.40;99.90;;;;;;5003948;28;20054;-65
2022/03/31 04:39:56;;;;;;;10.97;3.67;;;-5.40;99.90;;;;;;5006817;28;20149;-65
2022/03/31 04:42:23;;;;;;;10.80;3.17;;;-5.40;99.90;;;;;;4987312;28;20321;-67
2022/03/31 04:44:50;;;;;;;7.33;3.37;;;-5.50;99.90;;;;;;5004288;28;20073;-64
2022/03/31 04:47:17;;;;;;;12.50;3.23;;;-5.60;99.90;;;;;;4993762;28;20033;-63
2022/03/31 04:49:44;;;;;;;22.03;4.10;;;-5.60;99.90;;;;;;5004334;28;20050;-69
2022/03/31 04:52:11;;;;;;;13.77;4.47;;;-5.60;99.90;;;;;;5001217;28;20703;-66
2022/03/31 04:54:43;;;;;;;21.83;4.53;;;-5.60;99.90;;;;;;5006570;28;20038;-65
2022/03/31 04:57:15;;;;;;;15.40;5.93;;;-5.60;99.90;;;;;;4995688;28;20045;-63
2022/03/31 04:59:43;;;;;;;11.87;5.30;;;-5.60;99.90;;;;;;4995259;28;20296;-72
2022/03/31 05:02:11;;;;;;;32.87;7.63;;;-5.60;99.90;;;;;;4971413;28;20054;-66
2022/03/31 05:04:38;;;;;;;36.33;9.13;;;-5.60;99.90;;;;;;5012026;28;20148;-65
2022/03/31 05:07:05;;;;;;;24.83;8.73;;;-5.60;99.90;;;;;;5003163;28;20077;-64
2022/03/31 05:09:32;;;;;;;31.53;7.47;;;-5.60;99.90;;;;;;5006082;28;20081;-66
2022/03/31 05:11:59;;;;;;;44.50;8.43;;;-5.50;99.90;;;;;;4992055;28;20496;-67
2022/03/31 05:14:26;;;;;;;36.63;9.87;;;-5.50;99.90;;;;;;4988694;28;20046;-66
2022/03/31 05:16:53;;;;;;;36.03;9.63;;;-5.40;99.90;;;;;;4994977;28;20045;-63
2022/03/31 05:19:21;;;;;;;44.27;10.73;;;-5.40;99.90;;;;;;4995657;28;20413;-65
2022/03/31 05:21:48;;;;;;;34.33;8.43;;;-5.30;99.90;;;;;;4992600;28;20140;-63
2022/03/31 05:24:15;;;;;;;45.17;11.07;;;-5.30;99.90;;;;;;4997953;28;20054;-69
2022/03/31 05:26:42;;;;;;;44.07;12.73;;;-5.20;99.90;;;;;;4997441;28;20074;-66
2022/03/31 05:29:09;;;;;;;44.07;12.83;;;-5.20;99.90;;;;;;4993282;28;20065;-69
2022/03/31 05:31:36;;;;;;;59.57;13.17;;;-5.10;99.90;;;;;;4997367;28;20511;-64
2022/03/31 05:34:03;;;;;;;73.60;12.43;;;-5.00;99.90;;;;;;4991606;28;20487;-68
2022/03/31 05:36:30;;;;;;;58.87;12.17;;;-5.00;99.90;;;;;;4995814;28;20604;-69
2022/03/31 05:38:57;;;;;;;53.37;12.17;;;-4.90;99.90;;;;;;4999877;28;20420;-65
2022/03/31 05:41:25;;;;;;;72.13;11.80;;;-4.80;99.90;;;;;;4991967;28;20084;-71
2022/03/31 05:43:52;;;;;;;70.47;10.40;;;-4.80;99.90;;;;;;4995307;28;20064;-64
2022/03/31 05:46:23;;;;;;;84.83;14.60;;;-4.70;99.90;;;;;;4992221;28;20050;-65
2022/03/31 05:48:51;;;;;;;93.30;16.70;;;-4.60;99.90;;;;;;4989704;28;20061;-68
2022/03/31 05:51:18;;;;;;;73.80;12.30;;;-4.50;99.90;;;;;;4990696;28;20525;-66
2022/03/31 05:53:45;;;;;;;78.70;14.37;;;-4.30;99.90;;;;;;4996200;28;20156;-64
2022/03/31 05:56:12;;;;;;;56.23;13.00;;;-4.20;99.90;;;;;;4992510;28;20073;-69
2022/03/31 05:58:39;;;;;;;68.30;12.30;;;-4.10;99.90;;;;;;4994149;28;20217;-63
2022/03/31 06:01:06;;;;;;;71.50;14.13;;;-3.90;99.90;;;;;;4995217;28;20073;-64
2022/03/31 06:03:33;;;;;;;109.13;14.70;;;-3.90;99.90;;;;;;4985534;28;20077;-64
2022/03/31 06:06:00;;;;;;;66.50;12.47;;;-3.80;99.90;;;;;;4988995;28;20477;-67
2022/03/31 06:08:27;;;;;;;95.60;14.73;;;-3.60;99.90;;;;;;4991567;28;20072;-64
2022/03/31 06:10:55;;;;;;;74.17;13.60;;;-3.40;99.90;;;;;;4998457;28;20120;-64
2022/03/31 06:13:22;;;;;;;86.60;14.57;;;-3.30;99.90;;;;;;4990567;28;20144;-69
2022/03/31 06:15:49;;;;;;;90.83;13.37;;;-3.10;99.90;;;;;;4993871;28;20049;-71
2022/03/31 06:18:18;;;;;;;76.97;14.13;;;-3.00;99.90;;;;;;4989377;28;20048;-69
2022/03/31 06:20:44;;;;;;;78.37;11.07;;;-2.90;99.90;;;;;;4995378;28;20050;-63
2022/03/31 06:23:11;;;;;;;69.70;11.88;;;-2.80;99.90;;;;;;4988822;28;20725;-65
2022/03/31 06:25:41;;;;;;;86.60;11.32;;;-2.70;99.90;;;;;;4987760;28;20902;-64
2022/03/31 06:28:09;;;;;;;45.30;8.30;;;-2.50;99.90;;;;;;4992515;28;20463;-63
2022/03/31 06:30:36;;;;;;;32.50;4.63;;;-2.40;99.90;;;;;;4996156;28;20050;-65
2022/03/31 06:33:03;;;;;;;19.77;3.55;;;-2.20;99.90;;;;;;4995267;28;20439;-65
2022/03/31 06:35:30;;;;;;;30.33;4.68;;;-2.10;99.90;;;;;;4992700;28;20124;-68
2022/03/31 06:37:57;;;;;;;17.83;4.57;;;-2.00;99.90;;;;;;4994078;28;20047;-66
2022/03/31 06:40:24;;;;;;;35.20;5.85;;;-1.80;99.90;;;;;;4992652;28;20049;-66
2022/03/31 06:42:51;;;;;;;19.60;4.55;;;-1.60;99.90;;;;;;4991040;28;20129;-66
2022/03/31 06:45:19;;;;;;;14.60;2.72;;;-1.50;99.90;;;;;;4991261;28;20156;-64
2022/03/31 06:47:56;;;;;;;6.95;2.05;;;-1.30;99.90;;;;;;4988185;28;20152;-69
2022/03/31 06:50:32;;;;;;;8.88;1.75;;;-1.20;99.90;;;;;;4994789;28;20053;-64
2022/03/31 06:53:00;;;;;;;7.68;2.97;;;-1.00;99.90;;;;;;4995350;28;20604;-71
2022/03/31 06:55:28;;;;;;;5.03;1.20;;;-0.90;99.90;;;;;;4993318;28;20104;-64
2022/03/31 06:57:55;;;;;;;4.20;1.20;;;-0.70;99.90;;;;;;4994018;28;20046;-65
2022/03/31 07:00:22;;;;;;;3.97;1.25;;;-0.70;99.90;;;;;;4992347;28;20046;-64
2022/03/31 07:02:49;;;;;;;3.42;0.95;;;-0.50;99.90;;;;;;4994034;28;20042;-71
2022/03/31 07:05:17;;;;;;;3.50;1.33;;;-0.40;99.90;;;;;;4993903;28;20115;-63
2022/03/31 07:07:44;;;;;;;4.63;1.17;;;-0.30;99.90;;;;;;4998949;28;20045;-63
2022/03/31 07:10:11;;;;;;;14.00;1.55;;;-0.20;99.90;;;;;;4997423;28;20088;-64
2022/03/31 07:12:42;;;;;;;2.22;0.80;;;-0.10;99.90;;;;;;5000255;28;20044;-63
2022/03/31 07:15:09;;;;;;;;;;;0.00;99.90;;;;;;4990635;28;20065;-65
2022/03/31 07:17:37;;;;;;;0.47;0.40;;;0.10;99.90;;;;;;4999488;28;20403;-69
2022/03/31 07:20:04;;;;;;;1.70;1.20;;;0.30;99.90;;;;;;4996357;28;20070;-68
2022/03/31 07:22:32;;;;;;;1.85;0.73;;;0.40;99.90;;;;;;4995802;28;20065;-65
2022/03/31 07:25:00;;;;;;;6.28;1.95;;;0.40;99.90;;;;;;4993421;28;20069;-68
2022/03/31 07:27:27;;;;;;;2.08;0.60;;;0.50;99.90;;;;;;4995843;28;20061;-64
2022/03/31 07:29:54;;;;;;;3.05;1.45;;;0.50;99.90;;;;;;4999329;28;20486;-66
2022/03/31 07:32:21;;;;;;;2.58;0.82;;;0.50;99.90;;;;;;4993384;28;20062;-64
2022/03/31 07:34:48;;;;;;;1.70;0.70;;;0.60;99.90;;;;;;4995578;28;20046;-67
2022/03/31 07:37:15;;;;;;;1.17;0.60;;;0.60;99.90;;;;;;4996073;28;20366;-64
2022/03/31 07:39:45;;;;;;;4.57;1.05;;;0.60;99.90;;;;;;4997043;28;20057;-64
2022/03/31 07:42:13;;;;;;;2.58;1.20;;;0.70;99.90;;;;;;4992050;28;20409;-67
2022/03/31 07:44:40;;;;;;;1.55;0.45;;;0.80;99.90;;;;;;4992732;28;20683;-64
2022/03/31 07:47:07;;;;;;;0.80;0.40;;;0.80;99.90;;;;;;4992571;28;20137;-63
2022/03/31 07:49:35;;;;;;;0.90;0.63;;;0.90;99.90;;;;;;4997966;28;20046;-68
2022/03/31 07:52:03;;;;;;;1.33;0.75;;;1.00;99.90;;;;;;4999621;28;20050;-68
2022/03/31 07:54:29;;;;;;;1.17;0.40;;;1.00;99.90;;;;;;4998601;28;20160;-69
2022/03/31 07:56:56;;;;;;;4.03;1.00;;;1.00;98.00;;;;;;4996433;28;20046;-71
2022/03/31 07:59:27;;;;;;;1.80;0.60;;;0.90;98.40;;;;;;5000300;28;20402;-66
2022/03/31 08:01:54;;;;;;;2.67;0.80;;;0.90;98.40;;;;;;5003531;28;20092;-63
2022/03/31 08:04:22;;;;;;;1.75;0.55;;;0.80;98.40;;;;;;5002222;28;20487;-66
2022/03/31 08:06:50;;;;;;;10.18;1.13;;;0.90;97.70;;;;;;5003222;28;20054;-64
2022/03/31 08:09:20;;;;;;;2.45;2.15;;;0.90;97.80;;;;;;5001024;28;20045;-63
2022/03/31 08:11:51;;;;;;;5.55;1.38;;;1.10;98.80;;;;;;5004373;28;20073;-66
2022/03/31 08:14:20;;;;;;;3.72;0.95;;;1.20;99.50;;;;;;5001474;28;20554;-68
2022/03/31 08:16:48;;;;;;;6.97;1.10;;;1.30;98.00;;;;;;4999319;28;20534;-64
2022/03/31 08:19:16;;;;;;;2.53;0.82;;;1.20;97.40;;;;;;5002325;28;20160;-65
2022/03/31 08:21:44;;;;;;;4.55;0.90;;;1.20;98.80;;;;;;4997076;28;20046;-64
2022/03/31 08:24:13;;;;;;;3.03;0.80;;;1.10;98.30;;;;;;5000548;28;20074;-67
2022/03/31 08:26:41;;;;;;;12.23;2.13;;;1.00;99.70;;;;;;4999446;28;20050;-66
2022/03/31 08:29:10;;;;;;;4.15;1.55;;;1.00;99.90;;;;;;5005521;28;20449;-66
2022/03/31 08:31:38;;;;;;;5.30;1.30;;;1.00;99.90;;;;;;5000400;28;20053;-66
2022/03/31 08:34:05;;;;;;;7.18;1.70;;;0.90;99.60;;;;;;5004860;28;20140;-63
2022/03/31 08:36:32;;;;;;;10.63;1.30;;;0.90;99.50;;;;;;5001892;28;20132;-66
2022/03/31 08:39:00;;;;;;;10.60;1.50;;;0.90;98.70;;;;;;5007304;28;20064;-67
2022/03/31 08:41:28;;;;;;;10.95;1.80;;;0.80;98.60;;;;;;4997648;28;20049;-63
2022/03/31 08:43:56;;;;;;;6.47;1.25;;;0.80;98.30;;;;;;5002413;28;20410;-66
2022/03/31 08:46:31;;;;;;;18.45;3.80;;;0.80;98.00;;;;;;4997601;28;20053;-68
2022/03/31 08:48:58;;;;;;;14.85;2.58;;;0.80;98.40;;;;;;5001868;28;20132;-63
2022/03/31 08:51:25;;;;;;;10.90;1.77;;;0.80;98.80;;;;;;4994737;28;20076;-65
2022/03/31 08:53:52;;;;;;;8.80;1.92;;;0.90;97.00;;;;;;4997881;28;20041;-63
2022/03/31 08:56:19;;;;;;;8.35;1.30;;;0.90;95.60;;;;;;5001149;28;20144;-63
2022/03/31 08:58:47;;;;;;;4.82;1.20;;;1.00;95.10;;;;;;4998579;28;20053;-66
2022/03/31 09:01:16;;;;;;;5.30;1.23;;;1.10;95.00;;;;;;5003786;28;20128;-67
2022/03/31 09:03:44;;;;;;;5.88;0.90;;;1.20;95.50;;;;;;4994072;28;20053;-68
2022/03/31 09:06:31;;;;;;;15.30;4.38;;;1.40;96.00;;;;;;4996999;28;20060;-67
2022/03/31 09:09:00;;;;;;;2.15;0.85;;;1.70;95.80;;;;;;5004099;28;20132;-63
2022/03/31 09:11:33;;;;;;;2.88;0.68;;;1.90;95.30;;;;;;5004489;28;20060;-63
2022/03/31 09:14:06;;;;;;;11.52;3.58;;;2.00;94.20;;;;;;5004534;28;20491;-63
2022/03/31 09:16:35;;;;;;;1.58;0.32;;;2.20;92.90;;;;;;5002505;28;20042;-69
2022/03/31 09:19:10;;;;;;;1.83;0.60;;;2.30;91.90;;;;;;4998763;28;20060;-70
2022/03/31 09:21:53;;;;;;;1.70;0.70;;;2.40;92.60;;;;;;5004121;28;20054;-64
2022/03/31 09:24:22;;;;;;;17.75;6.97;;;2.30;91.40;;;;;;5001301;28;20057;-66
2022/03/31 09:26:50;;;;;;;8.60;2.85;;;2.40;90.60;;;;;;5000280;28;20050;-64
2022/03/31 09:29:19;;;;;;;3.22;1.65;;;2.40;88.60;;;;;;5004355;28;20324;-66
2022/03/31 09:31:47;;;;;;;6.07;0.85;;;2.40;84.60;;;;;;5002185;28;20058;-65
2022/03/31 09:34:15;;;;;;;4.40;0.63;;;2.50;84.20;;;;;;4991321;28;20054;-68
2022/03/31 09:36:47;;;;;;;2.85;0.88;;;2.60;84.40;;;;;;4993958;28;20049;-65
2022/03/31 09:39:17;;;;;;;3.20;0.77;;;2.60;85.10;;;;;;4995061;28;20048;-65
2022/03/31 09:41:50;;;;;;;5.60;3.30;;;2.60;81.50;;;;;;5000107;28;20149;-67
2022/03/31 09:44:21;;;;;;;0.90;0.50;;;2.60;84.60;;;;;;4993170;28;20108;-63
2022/03/31 09:46:50;;;;;;;0.73;0.28;;;2.60;83.40;;;;;;5003369;28;20073;-66
2022/03/31 09:49:22;;;;;;;2.58;0.93;;;2.60;84.50;;;;;;5003800;28;20383;-67
2022/03/31 09:51:54;;;;;;;2.05;1.63;;;2.70;83.80;;;;;;4995104;28;20054;-64
2022/03/31 09:54:26;;;;;;;2.80;0.60;;;2.80;83.20;;;;;;5002156;28;20050;-66
2022/03/31 09:56:54;;;;;;;2.22;0.60;;;2.80;81.70;;;;;;4996111;28;20080;-70
2022/03/31 09:59:23;;;;;;;3.53;0.65;;;2.80;80.40;;;;;;5003337;28;20061;-64
2022/03/31 10:01:52;;;;;;;1.80;0.80;;;3.00;83.50;;;;;;5004002;28;20630;-64
2022/03/31 10:04:21;;;;;;;2.83;0.70;;;3.10;80.70;;;;;;5000518;28;20392;-63
2022/03/31 10:06:54;;;;;;;3.05;0.90;;;3.10;81.20;;;;;;5001148;28;20048;-64
2022/03/31 10:09:22;;;;;;;21.17;1.80;;;3.10;81.40;;;;;;5003658;28;20042;-63
2022/03/31 10:12:00;;;;;;;1.65;0.50;;;3.20;80.00;;;;;;5003490;28;20064;-67
2022/03/31 10:14:55;;;;;;;4.03;0.70;;;3.30;77.50;;;;;;5001557;28;20397;-64
2022/03/31 10:17:26;;;;;;;2.97;0.47;;;3.20;79.50;;;;;;4994456;28;20053;-63
2022/03/31 10:20:05;;;;;;;0.30;0.22;;;3.20;79.20;;;;;;4989635;28;20070;-68
2022/03/31 10:25:18;;;;;;;4.22;0.40;;;3.30;77.80;;;;;;4993101;28;20137;-65
2022/03/31 10:27:45;;;;;;;1.90;0.70;;;3.20;78.50;;;;;;5001207;28;20074;-67
2022/03/31 10:30:22;;;;;;;2.15;1.15;;;3.20;78.80;;;;;;4987994;28;20092;-64
2022/03/31 10:32:57;;;;;;;9.38;1.00;;;3.20;78.00;;;;;;4994225;28;20046;-70
2022/03/31 10:35:32;;;;;;;3.20;0.77;;;3.30;76.60;;;;;;4992952;28;20085;-63
2022/03/31 10:38:15;;;;;;;6.85;1.00;;;3.40;79.60;;;;;;4988431;28;20798;-65
2022/03/31 10:40:59;;;;;;;6.50;0.63;;;3.50;79.20;;;;;;4985955;28;20070;-64
2022/03/31 10:43:31;;;;;;;2.03;0.80;;;3.50;81.20;;;;;;4990066;28;20057;-63
2022/03/31 10:46:01;;;;;;;3.25;1.20;;;3.50;76.20;;;;;;4996452;28;20061;-66
2022/03/31 10:48:36;;;;;;;8.10;1.80;;;3.60;78.10;;;;;;4987650;28;20402;-66
2022/03/31 10:51:04;;;;;;;1.60;0.47;;;3.70;77.60;;;;;;4989034;28;20043;-63
2022/03/31 10:53:33;;;;;;;2.53;0.82;;;3.50;76.10;;;;;;4994120;28;20065;-69
2022/03/31 10:56:02;;;;;;;1.30;0.40;;;3.60;78.90;;;;;;4995687;28;20052;-69
2022/03/31 10:58:32;;;;;;;1.30;0.65;;;3.60;79.30;;;;;;4995195;28;20050;-64
2022/03/31 11:01:05;;;;;;;4.85;0.60;;;3.60;79.50;;;;;;4990409;28;20518;-68
2022/03/31 11:03:33;;;;;;;6.07;1.92;;;3.70;84.50;;;;;;4991668;28;20061;-63
2022/03/31 11:06:04;;;;;;;4.25;0.90;;;3.70;90.70;;;;;;4994479;28;20050;-64
2022/03/31 11:08:40;;;;;;;1.02;0.90;;;3.60;91.00;;;;;;4988025;28;20161;-69
2022/03/31 11:11:08;;;;;;;1.40;0.70;;;3.70;91.50;;;;;;4985979;28;20046;-64
2022/03/31 11:13:35;;;;;;;7.60;1.20;;;3.70;92.00;;;;;;4991994;28;20088;-65
2022/03/31 11:16:04;;;;;;;1.85;0.70;;;3.70;91.60;;;;;;4993179;28;20077;-69
2022/03/31 11:18:31;;;;;;;8.80;1.20;;;3.80;92.60;;;;;;4989268;28;20110;-69
2022/03/31 11:21:00;;;;;;;6.28;0.80;;;3.70;92.30;;;;;;4995654;28;21030;-64
2022/03/31 11:23:28;;;;;;;3.15;0.75;;;3.80;91.80;;;;;;4991115;28;20153;-65
2022/03/31 11:25:56;;;;;;;3.25;1.08;;;3.70;91.50;;;;;;4992753;28;20144;-65
2022/03/31 11:28:27;;;;;;;6.03;1.55;;;3.60;91.80;;;;;;4993550;28;20421;-68
2022/03/31 11:30:55;;;;;;;4.95;0.93;;;3.70;92.00;;;;;;4996823;28;20050;-64
2022/03/31 11:33:22;;;;;;;4.68;1.00;;;3.90;92.30;;;;;;4994419;28;20129;-64
2022/03/31 11:35:53;;;;;;;3.40;1.05;;;3.90;91.50;;;;;;4990065;28;21011;-68
2022/03/31 11:38:19;;;;;;;5.47;1.05;;;4.00;91.00;;;;;;4989134;28;20046;-63
2022/03/31 11:40:49;;;;;;;0.90;0.60;;;3.90;90.50;;;;;;4996580;28;20479;-69
2022/03/31 11:43:20;;;;;;;1.05;0.77;;;4.00;90.10;;;;;;4989443;28;20188;-63
2022/03/31 11:45:50;;;;;;;5.45;1.25;;;3.80;89.20;;;;;;4987441;28;20081;-64
2022/03/31 11:48:31;;;;;;;1.92;0.68;;;3.80;90.60;;;;;;4987407;28;20104;-65
2022/03/31 11:51:04;;;;;;;1.60;1.45;;;3.70;89.00;;;;;;4995391;28;20145;-64
2022/03/31 11:53:42;;;;;;;6.97;1.00;;;3.70;90.50;;;;;;4992274;28;20072;-66
2022/03/31 11:56:21;;;;;;;4.75;0.90;;;3.70;89.20;;;;;;4989000;28;20212;-66
2022/03/31 11:58:51;;;;;;;3.85;0.93;;;3.70;90.00;;;;;;4983062;28;20141;-66
2022/03/31 12:01:21;;;;;;;5.90;1.40;;;3.80;90.50;;;;;;4992786;28;20148;-68
2022/03/31 12:03:48;;;;;;;2.25;1.80;;;3.90;89.90;;;;;;5000175;28;20443;-66
2022/03/31 12:06:16;;;;;;;3.47;0.95;;;4.10;90.80;;;;;;5002072;28;20123;-64
2022/03/31 12:08:44;;;;;;;3.67;0.68;;;4.00;91.40;;;;;;4996120;28;20073;-63
2022/03/31 12:11:13;;;;;;;4.63;1.13;;;4.10;92.00;;;;;;4991457;28;20070;-66
2022/03/31 12:13:58;;;;;;;3.28;0.70;;;4.20;92.20;;;;;;5000758;28;20137;-63
2022/03/31 12:16:26;;;;;;;0.90;0.50;;;4.20;91.70;;;;;;4993711;28;20448;-69
2022/03/31 12:18:58;;;;;;;2.75;0.73;;;4.10;87.80;;;;;;4999459;28;20200;-64
2022/03/31 12:21:27;;;;;;;6.32;0.80;;;4.10;91.10;;;;;;4995171;28;20074;-66
2022/03/31 12:24:01;;;;;;;3.20;1.45;;;4.10;91.00;;;;;;4998000;28;20144;-65
2022/03/31 12:26:56;;;;;;;1.73;0.60;;;4.10;91.40;;;;;;4993332;28;20559;-62
2022/03/31 12:29:25;;;;;;;5.97;1.48;;;4.10;90.50;;;;;;4996761;28;20073;-67
2022/03/31 12:32:06;;;;;;;3.53;1.35;;;4.00;91.70;;;;;;4994565;28;20390;-65
2022/03/31 12:35:01;;;;;;;4.78;1.13;;;3.90;91.70;;;;;;4994460;28;20061;-70
2022/03/31 12:37:38;;;;;;;7.05;1.30;;;3.90;92.30;;;;;;5002366;28;20866;-65
2022/03/31 12:40:08;;;;;;;1.88;0.70;;;3.80;90.90;;;;;;4989484;28;20065;-64
2022/03/31 12:42:36;;;;;;;6.28;0.70;;;4.00;92.10;;;;;;4993440;28;20103;-64
2022/03/31 12:45:15;;;;;;;1.40;0.52;;;4.10;91.80;;;;;;4994716;28;20060;-71
2022/03/31 12:47:44;;;;;;;4.95;0.80;;;4.10;90.40;;;;;;4995079;28;20073;-62
2022/03/31 12:50:19;;;;;;;1.20;0.50;;;4.00;90.90;;;;;;4994112;28;20124;-64
2022/03/31 12:52:53;;;;;;;10.98;2.78;;;4.20;90.80;;;;;;4998918;28;20057;-63
2022/03/31 12:55:31;;;;;;;2.15;0.80;;;4.20;90.80;;;;;;4998723;28;20062;-64
2022/03/31 12:58:00;;;;;;;4.55;0.80;;;4.00;89.40;;;;;;5000439;28;20087;-69
2022/03/31 13:00:28;;;;;;;3.60;0.98;;;3.70;89.30;;;;;;4988144;28;20133;-64
2022/03/31 13:02:59;;;;;;;1.00;0.68;;;3.70;90.50;;;;;;4991344;28;20053;-67